sensor_id;sensor_type;location;lat;lon;timestamp;pressure;altitude;pressure_sealevel;temperature;humidity
3096;BME280;1558;42.700;23.360;2023-04-25T00:00:24;94605.50;;;10.24;100.00
3096;BME280;1558;42.700;23.360;2023-04-25T00:02:52;94598.78;;;10.18;100.00
3096;BME280;1558;42.700;23.360;2023-04-25T00:05:24;94597.53;;;10.00;100.00
3096;BME280;1558;42.700;23.360;2023-04-25T00:07:52;94599.00;;;9.97;100.00
3096;BME280;1558;42.700;23.360;2023-04-25T00:10:20;94587.78;;;9.95;100.00
3096;BME280;1558;42.700;23.360;2023-04-25T00:12:48;94579.47;;;10.00;100.00
3096;BME280;1558;42.700;23.360;2023-04-25T00:15:16;94561.03;;;10.02;100.00
3096;BME280;1558;42.700;23.360;2023-04-25T00:17:44;94555.72;;;10.06;100.00
3096;BME280;1558;42.700;23.360;2023-04-25T00:20:13;94553.63;;;9.99;100.00
3096;BME280;1558;42.700;23.360;2023-04-25T00:22:43;94549.19;;;9.91;100.00
3096;BME280;1558;42.700;23.360;2023-04-25T00:25:11;94545.53;;;9.84;100.00
3096;BME280;1558;42.700;23.360;2023-04-25T00:27:39;94540.16;;;9.84;100.00
3096;BME280;1558;42.700;23.360;2023-04-25T00:30:09;94539.69;;;9.82;100.00
3096;BME280;1558;42.700;23.360;2023-04-25T00:32:37;94548.91;;;9.81;100.00
3096;BME280;1558;42.700;23.360;2023-04-25T00:35:05;94537.78;;;9.82;100.00
3096;BME280;1558;42.700;23.360;2023-04-25T00:37:33;94538.50;;;9.79;100.00
3096;BME280;1558;42.700;23.360;2023-04-25T00:40:05;94540.03;;;9.80;100.00
3096;BME280;1558;42.700;23.360;2023-04-25T00:42:35;94537.09;;;9.85;100.00
3096;BME280;1558;42.700;23.360;2023-04-25T00:45:05;94542.31;;;9.78;100.00
3096;BME280;1558;42.700;23.360;2023-04-25T00:47:35;94528.84;;;9.78;100.00
3096;BME280;1558;42.700;23.360;2023-04-25T00:50:05;94534.13;;;9.75;100.00
3096;BME280;1558;42.700;23.360;2023-04-25T00:52:33;94538.38;;;9.76;100.00
3096;BME280;1558;42.700;23.360;2023-04-25T00:55:03;94531.78;;;9.73;100.00
3096;BME280;1558;42.700;23.360;2023-04-25T00:57:31;94541.75;;;9.73;100.00
3096;BME280;1558;42.700;23.360;2023-04-25T01:00:00;94546.22;;;9.81;100.00
3096;BME280;1558;42.700;23.360;2023-04-25T01:02:28;94545.72;;;9.91;100.00
3096;BME280;1558;42.700;23.360;2023-04-25T01:04:57;94542.59;;;10.04;100.00
3096;BME280;1558;42.700;23.360;2023-04-25T01:07:25;94541.50;;;10.05;100.00
3096;BME280;1558;42.700;23.360;2023-04-25T01:09:53;94546.41;;;10.03;100.00
3096;BME280;1558;42.700;23.360;2023-04-25T01:12:23;94520.69;;;10.06;100.00
3096;BME280;1558;42.700;23.360;2023-04-25T01:14:51;94519.94;;;10.05;100.00
3096;BME280;1558;42.700;23.360;2023-04-25T01:17:20;94513.03;;;10.08;100.00
3096;BME280;1558;42.700;23.360;2023-04-25T01:19:48;94517.09;;;10.14;100.00
3096;BME280;1558;42.700;23.360;2023-04-25T01:22:18;94505.53;;;10.13;100.00
3096;BME280;1558;42.700;23.360;2023-04-25T01:24:47;94500.72;;;10.07;100.00
3096;BME280;1558;42.700;23.360;2023-04-25T01:27:15;94498.38;;;10.05;100.00
3096;BME280;1558;42.700;23.360;2023-04-25T01:29:44;94493.25;;;10.00;100.00
3096;BME280;1558;42.700;23.360;2023-04-25T01:32:13;94500.97;;;10.02;100.00
3096;BME280;1558;42.700;23.360;2023-04-25T01:34:41;94496.13;;;10.07;100.00
3096;BME280;1558;42.700;23.360;2023-04-25T01:37:09;94500.63;;;10.03;100.00
3096;BME280;1558;42.700;23.360;2023-04-25T01:39:39;94495.41;;;9.95;100.00
3096;BME280;1558;42.700;23.360;2023-04-25T01:42:07;94498.91;;;9.95;100.00
3096;BME280;1558;42.700;23.360;2023-04-25T01:44:35;94500.44;;;9.96;100.00
3096;BME280;1558;42.700;23.360;2023-04-25T01:47:03;94500.25;;;9.89;100.00
3096;BME280;1558;42.700;23.360;2023-04-25T01:49:31;94500.09;;;9.82;100.00
3096;BME280;1558;42.700;23.360;2023-04-25T01:51:59;94499.13;;;9.75;100.00
3096;BME280;1558;42.700;23.360;2023-04-25T01:54:27;94499.03;;;9.71;100.00
3096;BME280;1558;42.700;23.360;2023-04-25T01:56:58;94512.06;;;9.69;100.00
3096;BME280;1558;42.700;23.360;2023-04-25T01:59:26;94511.16;;;9.65;100.00
3096;BME280;1558;42.700;23.360;2023-04-25T02:01:54;94505.34;;;9.63;100.00
3096;BME280;1558;42.700;23.360;2023-04-25T02:04:22;94506.50;;;9.62;100.00
3096;BME280;1558;42.700;23.360;2023-04-25T02:06:51;94505.69;;;9.62;100.00
3096;BME280;1558;42.700;23.360;2023-04-25T02:09:19;94507.19;;;9.59;100.00
3096;BME280;1558;42.700;23.360;2023-04-25T02:11:47;94506.31;;;9.55;100.00
3096;BME280;1558;42.700;23.360;2023-04-25T02:14:16;94497.09;;;9.56;100.00
3096;BME280;1558;42.700;23.360;2023-04-25T02:16:44;94491.69;;;9.56;100.00
3096;BME280;1558;42.700;23.360;2023-04-25T02:19:13;94488.69;;;9.58;100.00
3096;BME280;1558;42.700;23.360;2023-04-25T02:21:41;94492.13;;;9.58;100.00
3096;BME280;1558;42.700;23.360;2023-04-25T02:24:09;94482.50;;;9.57;100.00
3096;BME280;1558;42.700;23.360;2023-04-25T02:26:37;94472.53;;;9.58;100.00
3096;BME280;1558;42.700;23.360;2023-04-25T02:29:05;94479.13;;;9.60;100.00
3096;BME280;1558;42.700;23.360;2023-04-25T02:31:35;94472.97;;;9.60;100.00
3096;BME280;1558;42.700;23.360;2023-04-25T02:34:03;94474.19;;;9.62;100.00
3096;BME280;1558;42.700;23.360;2023-04-25T02:36:31;94466.34;;;9.57;100.00
3096;BME280;1558;42.700;23.360;2023-04-25T02:39:00;94466.34;;;9.57;100.00
3096;BME280;1558;42.700;23.360;2023-04-25T02:41:29;94457.13;;;9.58;100.00
3096;BME280;1558;42.700;23.360;2023-04-25T02:43:57;94468.81;;;9.62;100.00
3096;BME280;1558;42.700;23.360;2023-04-25T02:46:25;94462.63;;;9.62;100.00
3096;BME280;1558;42.700;23.360;2023-04-25T02:49:05;94460.53;;;9.55;100.00
3096;BME280;1558;42.700;23.360;2023-04-25T02:51:33;94453.50;;;9.50;100.00
3096;BME280;1558;42.700;23.360;2023-04-25T02:54:01;94458.41;;;9.48;100.00
3096;BME280;1558;42.700;23.360;2023-04-25T02:56:29;94454.88;;;9.44;100.00
3096;BME280;1558;42.700;23.360;2023-04-25T02:58:57;94454.31;;;9.39;100.00
3096;BME280;1558;42.700;23.360;2023-04-25T03:01:25;94453.88;;;9.37;100.00
3096;BME280;1558;42.700;23.360;2023-04-25T03:03:54;94455.03;;;9.36;100.00
3096;BME280;1558;42.700;23.360;2023-04-25T03:06:23;94455.81;;;9.36;100.00
3096;BME280;1558;42.700;23.360;2023-04-25T03:08:51;94465.88;;;9.39;100.00
3096;BME280;1558;42.700;23.360;2023-04-25T03:11:19;94455.91;;;9.40;100.00
3096;BME280;1558;42.700;23.360;2023-04-25T03:13:47;94447.47;;;9.41;100.00
3096;BME280;1558;42.700;23.360;2023-04-25T03:16:16;94441.34;;;9.41;100.00
3096;BME280;1558;42.700;23.360;2023-04-25T03:18:44;94441.22;;;9.37;100.00
3096;BME280;1558;42.700;23.360;2023-04-25T03:21:12;94446.25;;;9.39;100.00
3096;BME280;1558;42.700;23.360;2023-04-25T03:23:41;94459.03;;;9.42;100.00
3096;BME280;1558;42.700;23.360;2023-04-25T03:26:09;94448.25;;;9.42;100.00
3096;BME280;1558;42.700;23.360;2023-04-25T03:28:37;94441.22;;;9.37;100.00
3096;BME280;1558;42.700;23.360;2023-04-25T03:31:06;94449.28;;;9.37;100.00
3096;BME280;1558;42.700;23.360;2023-04-25T03:33:34;94450.88;;;9.38;100.00
3096;BME280;1558;42.700;23.360;2023-04-25T03:36:03;94452.78;;;9.38;100.00
3096;BME280;1558;42.700;23.360;2023-04-25T03:38:31;94444.28;;;9.36;100.00
3096;BME280;1558;42.700;23.360;2023-04-25T03:41:00;94436.53;;;9.34;100.00
3096;BME280;1558;42.700;23.360;2023-04-25T03:43:29;94451.44;;;9.32;100.00
3096;BME280;1558;42.700;23.360;2023-04-25T03:45:57;94448.31;;;9.30;100.00
3096;BME280;1558;42.700;23.360;2023-04-25T03:48:25;94454.13;;;9.32;100.00
3096;BME280;1558;42.700;23.360;2023-04-25T03:50:54;94443.38;;;9.32;100.00
3096;BME280;1558;42.700;23.360;2023-04-25T03:53:22;94448.50;;;9.37;100.00
3096;BME280;1558;42.700;23.360;2023-04-25T03:55:50;94437.50;;;9.42;100.00
3096;BME280;1558;42.700;23.360;2023-04-25T03:58:19;94440.63;;;9.44;100.00
3096;BME280;1558;42.700;23.360;2023-04-25T04:00:49;94439.25;;;9.50;100.00
3096;BME280;1558;42.700;23.360;2023-04-25T04:03:17;94451.94;;;9.49;100.00
3096;BME280;1558;42.700;23.360;2023-04-25T04:05:45;94458.59;;;9.55;100.00
3096;BME280;1558;42.700;23.360;2023-04-25T04:08:14;94454.44;;;9.58;100.00
3096;BME280;1558;42.700;23.360;2023-04-25T04:10:42;94462.28;;;9.63;100.00
3096;BME280;1558;42.700;23.360;2023-04-25T04:13:10;94459.34;;;9.84;100.00
3096;BME280;1558;42.700;23.360;2023-04-25T04:15:39;94459.78;;;10.01;100.00
3096;BME280;1558;42.700;23.360;2023-04-25T04:18:07;94453.97;;;10.15;100.00
3096;BME280;1558;42.700;23.360;2023-04-25T04:20:35;94456.94;;;10.10;100.00
3096;BME280;1558;42.700;23.360;2023-04-25T04:23:03;94460.41;;;9.95;100.00
3096;BME280;1558;42.700;23.360;2023-04-25T04:25:31;94451.88;;;9.93;100.00
3096;BME280;1558;42.700;23.360;2023-04-25T04:28:01;94454.91;;;9.91;100.00
3096;BME280;1558;42.700;23.360;2023-04-25T04:30:29;94458.06;;;9.93;100.00
3096;BME280;1558;42.700;23.360;2023-04-25T04:32:59;94448.41;;;9.92;100.00
3096;BME280;1558;42.700;23.360;2023-04-25T04:35:28;94453.88;;;9.80;100.00
3096;BME280;1558;42.700;23.360;2023-04-25T04:37:56;94449.81;;;9.86;100.00
3096;BME280;1558;42.700;23.360;2023-04-25T04:40:24;94445.88;;;9.99;100.00
3096;BME280;1558;42.700;23.360;2023-04-25T04:42:53;94445.03;;;9.95;100.00
3096;BME280;1558;42.700;23.360;2023-04-25T04:45:23;94447.47;;;10.00;100.00
3096;BME280;1558;42.700;23.360;2023-04-25T04:47:51;94457.34;;;9.96;100.00
3096;BME280;1558;42.700;23.360;2023-04-25T04:50:23;94462.72;;;9.96;100.00
3096;BME280;1558;42.700;23.360;2023-04-25T04:52:51;94464.06;;;10.02;100.00
3096;BME280;1558;42.700;23.360;2023-04-25T04:55:19;94472.31;;;10.09;100.00
3096;BME280;1558;42.700;23.360;2023-04-25T04:57:47;94476.41;;;10.19;100.00
3096;BME280;1558;42.700;23.360;2023-04-25T05:00:15;94481.97;;;10.26;100.00
3096;BME280;1558;42.700;23.360;2023-04-25T05:02:43;94464.06;;;10.18;100.00
3096;BME280;1558;42.700;23.360;2023-04-25T05:05:12;94467.72;;;10.26;100.00
3096;BME280;1558;42.700;23.360;2023-04-25T05:07:41;94477.53;;;10.34;100.00
3096;BME280;1558;42.700;23.360;2023-04-25T05:10:10;94486.38;;;10.34;100.00
3096;BME280;1558;42.700;23.360;2023-04-25T05:12:38;94471.38;;;10.33;100.00
3096;BME280;1558;42.700;23.360;2023-04-25T05:15:06;94492.13;;;10.33;100.00
3096;BME280;1558;42.700;23.360;2023-04-25T05:17:35;94499.78;;;10.31;100.00
3096;BME280;1558;42.700;23.360;2023-04-25T05:20:04;94489.09;;;10.34;100.00
3096;BME280;1558;42.700;23.360;2023-04-25T05:22:33;94471.44;;;10.37;100.00
3096;BME280;1558;42.700;23.360;2023-04-25T05:25:03;94476.41;;;10.35;100.00
3096;BME280;1558;42.700;23.360;2023-04-25T05:27:32;94476.81;;;10.37;100.00
3096;BME280;1558;42.700;23.360;2023-04-25T05:30:00;94496.66;;;10.29;100.00
3096;BME280;1558;42.700;23.360;2023-04-25T05:32:28;94484.66;;;10.26;100.00
3096;BME280;1558;42.700;23.360;2023-04-25T05:34:56;94485.88;;;10.29;100.00
3096;BME280;1558;42.700;23.360;2023-04-25T05:37:24;94485.19;;;10.32;100.00
3096;BME280;1558;42.700;23.360;2023-04-25T05:39:53;94485.38;;;10.39;100.00
3096;BME280;1558;42.700;23.360;2023-04-25T05:42:22;94483.09;;;10.41;100.00
3096;BME280;1558;42.700;23.360;2023-04-25T05:44:50;94473.84;;;10.42;100.00
3096;BME280;1558;42.700;23.360;2023-04-25T05:47:18;94475.88;;;10.45;100.00
3096;BME280;1558;42.700;23.360;2023-04-25T05:49:46;94471.84;;;10.54;100.00
3096;BME280;1558;42.700;23.360;2023-04-25T05:52:14;94477.16;;;10.51;100.00
3096;BME280;1558;42.700;23.360;2023-04-25T05:54:42;94479.19;;;10.38;100.00
3096;BME280;1558;42.700;23.360;2023-04-25T05:57:19;94485.84;;;10.44;100.00
3096;BME280;1558;42.700;23.360;2023-04-25T05:59:48;94488.97;;;10.62;100.00
3096;BME280;1558;42.700;23.360;2023-04-25T06:02:16;94485.13;;;10.63;100.00
3096;BME280;1558;42.700;23.360;2023-04-25T06:04:45;94486.59;;;10.60;100.00
3096;BME280;1558;42.700;23.360;2023-04-25T06:07:13;94481.78;;;10.50;100.00
3096;BME280;1558;42.700;23.360;2023-04-25T06:09:41;94481.63;;;10.43;100.00
3096;BME280;1558;42.700;23.360;2023-04-25T06:12:09;94478.97;;;10.62;100.00
3096;BME280;1558;42.700;23.360;2023-04-25T06:14:37;94485.16;;;10.82;100.00
3096;BME280;1558;42.700;23.360;2023-04-25T06:17:07;94479.19;;;10.73;100.00
3096;BME280;1558;42.700;23.360;2023-04-25T06:19:35;94478.22;;;10.81;100.00
3096;BME280;1558;42.700;23.360;2023-04-25T06:22:03;94487.97;;;10.85;100.00
3096;BME280;1558;42.700;23.360;2023-04-25T06:24:31;94480.94;;;11.00;100.00
3096;BME280;1558;42.700;23.360;2023-04-25T06:27:00;94490.97;;;11.00;100.00
3096;BME280;1558;42.700;23.360;2023-04-25T06:29:29;94490.28;;;10.87;100.00
3096;BME280;1558;42.700;23.360;2023-04-25T06:31:57;94493.34;;;10.85;100.00
3096;BME280;1558;42.700;23.360;2023-04-25T06:34:26;94492.03;;;10.95;100.00
3096;BME280;1558;42.700;23.360;2023-04-25T06:36:54;94497.34;;;11.11;100.00
3096;BME280;1558;42.700;23.360;2023-04-25T06:39:23;94495.88;;;11.32;100.00
3096;BME280;1558;42.700;23.360;2023-04-25T06:41:52;94496.34;;;11.95;100.00
3096;BME280;1558;42.700;23.360;2023-04-25T06:44:21;94488.75;;;12.76;100.00
3096;BME280;1558;42.700;23.360;2023-04-25T06:46:52;94492.81;;;12.14;100.00
3096;BME280;1558;42.700;23.360;2023-04-25T06:49:22;94494.88;;;11.60;100.00
3096;BME280;1558;42.700;23.360;2023-04-25T06:51:53;94496.16;;;11.46;100.00
3096;BME280;1558;42.700;23.360;2023-04-25T06:54:24;94496.16;;;11.46;100.00
3096;BME280;1558;42.700;23.360;2023-04-25T06:56:54;94496.94;;;11.47;100.00
3096;BME280;1558;42.700;23.360;2023-04-25T06:59:23;94500.97;;;11.56;100.00
3096;BME280;1558;42.700;23.360;2023-04-25T07:01:51;94497.31;;;11.45;100.00
3096;BME280;1558;42.700;23.360;2023-04-25T07:04:24;94491.63;;;11.31;100.00
3096;BME280;1558;42.700;23.360;2023-04-25T07:06:54;94493.81;;;11.45;100.00
3096;BME280;1558;42.700;23.360;2023-04-25T07:09:26;94493.00;;;11.64;100.00
3096;BME280;1558;42.700;23.360;2023-04-25T07:11:54;94502.50;;;11.73;100.00
3096;BME280;1558;42.700;23.360;2023-04-25T07:14:25;94490.19;;;11.56;100.00
3096;BME280;1558;42.700;23.360;2023-04-25T07:16:55;94492.25;;;11.44;100.00
3096;BME280;1558;42.700;23.360;2023-04-25T07:19:23;94494.75;;;11.33;100.00
3096;BME280;1558;42.700;23.360;2023-04-25T07:21:54;94493.41;;;11.24;100.00
3096;BME280;1558;42.700;23.360;2023-04-25T07:24:23;94499.41;;;11.17;100.00
3096;BME280;1558;42.700;23.360;2023-04-25T07:26:52;94486.34;;;11.00;100.00
3096;BME280;1558;42.700;23.360;2023-04-25T07:29:24;94489.34;;;11.14;100.00
3096;BME280;1558;42.700;23.360;2023-04-25T07:31:52;94496.78;;;11.21;100.00
3096;BME280;1558;42.700;23.360;2023-04-25T07:34:20;94494.53;;;11.42;100.00
3096;BME280;1558;42.700;23.360;2023-04-25T07:36:48;94483.66;;;11.57;100.00
3096;BME280;1558;42.700;23.360;2023-04-25T07:39:18;94485.50;;;11.73;100.00
3096;BME280;1558;42.700;23.360;2023-04-25T07:41:46;94482.47;;;12.46;100.00
3096;BME280;1558;42.700;23.360;2023-04-25T07:44:14;94486.16;;;12.57;100.00
3096;BME280;1558;42.700;23.360;2023-04-25T07:46:42;94479.63;;;12.35;100.00
3096;BME280;1558;42.700;23.360;2023-04-25T07:49:10;94482.38;;;13.47;100.00
3096;BME280;1558;42.700;23.360;2023-04-25T07:51:38;94479.53;;;12.80;100.00
3096;BME280;1558;42.700;23.360;2023-04-25T07:54:07;94480.66;;;12.27;100.00
3096;BME280;1558;42.700;23.360;2023-04-25T07:56:37;94474.69;;;11.73;100.00
3096;BME280;1558;42.700;23.360;2023-04-25T07:59:17;94468.41;;;11.88;100.00
3096;BME280;1558;42.700;23.360;2023-04-25T08:01:45;94477.38;;;12.14;100.00
3096;BME280;1558;42.700;23.360;2023-04-25T08:04:13;94477.09;;;12.23;100.00
3096;BME280;1558;42.700;23.360;2023-04-25T08:06:42;94467.63;;;12.33;100.00
3096;BME280;1558;42.700;23.360;2023-04-25T08:09:10;94470.81;;;12.38;100.00
3096;BME280;1558;42.700;23.360;2023-04-25T08:11:40;94472.59;;;12.08;100.00
3096;BME280;1558;42.700;23.360;2023-04-25T08:14:10;94479.78;;;12.72;100.00
3096;BME280;1558;42.700;23.360;2023-04-25T08:16:38;94479.88;;;14.01;100.00
3096;BME280;1558;42.700;23.360;2023-04-25T08:19:06;94468.94;;;13.94;100.00
3096;BME280;1558;42.700;23.360;2023-04-25T08:21:34;94464.78;;;13.34;100.00
3096;BME280;1558;42.700;23.360;2023-04-25T08:24:03;94454.81;;;13.08;100.00
3096;BME280;1558;42.700;23.360;2023-04-25T08:26:31;94452.44;;;13.70;100.00
3096;BME280;1558;42.700;23.360;2023-04-25T08:29:00;94451.84;;;14.81;100.00
3096;BME280;1558;42.700;23.360;2023-04-25T08:31:28;94452.63;;;14.82;100.00
3096;BME280;1558;42.700;23.360;2023-04-25T08:33:57;94439.66;;;15.26;100.00
3096;BME280;1558;42.700;23.360;2023-04-25T08:36:25;94434.72;;;14.70;100.00
3096;BME280;1558;42.700;23.360;2023-04-25T08:39:05;94446.28;;;14.57;100.00
3096;BME280;1558;42.700;23.360;2023-04-25T08:41:34;94463.13;;;14.33;100.00
3096;BME280;1558;42.700;23.360;2023-04-25T08:44:05;94471.53;;;14.20;100.00
3096;BME280;1558;42.700;23.360;2023-04-25T08:46:34;94465.16;;;14.02;100.00
3096;BME280;1558;42.700;23.360;2023-04-25T08:49:04;94472.06;;;13.96;100.00
3096;BME280;1558;42.700;23.360;2023-04-25T08:51:32;94482.38;;;13.47;100.00
3096;BME280;1558;42.700;23.360;2023-04-25T08:54:08;94473.06;;;13.15;100.00
3096;BME280;1558;42.700;23.360;2023-04-25T08:56:57;94477.94;;;13.32;100.00
3096;BME280;1558;42.700;23.360;2023-04-25T08:59:30;94457.13;;;13.73;100.00
3096;BME280;1558;42.700;23.360;2023-04-25T09:01:58;94459.63;;;14.86;100.00
3096;BME280;1558;42.700;23.360;2023-04-25T09:04:26;94456.09;;;14.79;100.00
3096;BME280;1558;42.700;23.360;2023-04-25T09:06:54;94450.03;;;13.61;100.00
3096;BME280;1558;42.700;23.360;2023-04-25T09:09:23;94449.31;;;13.34;100.00
3096;BME280;1558;42.700;23.360;2023-04-25T09:11:54;94448.59;;;13.08;100.00
3096;BME280;1558;42.700;23.360;2023-04-25T09:14:23;94442.78;;;12.79;100.00
3096;BME280;1558;42.700;23.360;2023-04-25T09:17:01;94437.53;;;12.90;100.00
3096;BME280;1558;42.700;23.360;2023-04-25T09:19:32;94431.13;;;13.68;100.00
3096;BME280;1558;42.700;23.360;2023-04-25T09:22:04;94426.09;;;14.54;100.00
3096;BME280;1558;42.700;23.360;2023-04-25T09:24:35;94418.13;;;13.84;100.00
3096;BME280;1558;42.700;23.360;2023-04-25T09:27:04;94420.09;;;13.87;100.00
3096;BME280;1558;42.700;23.360;2023-04-25T09:29:34;94420.69;;;13.70;100.00
3096;BME280;1558;42.700;23.360;2023-04-25T09:32:17;94426.03;;;13.63;100.00
3096;BME280;1558;42.700;23.360;2023-04-25T09:34:47;94427.38;;;13.43;100.00
3096;BME280;1558;42.700;23.360;2023-04-25T09:37:18;94428.13;;;13.10;100.00
3096;BME280;1558;42.700;23.360;2023-04-25T09:39:47;94423.19;;;13.16;100.00
3096;BME280;1558;42.700;23.360;2023-04-25T09:42:16;94420.16;;;13.94;100.00
3096;BME280;1558;42.700;23.360;2023-04-25T09:44:45;94424.34;;;14.83;100.00
3096;BME280;1558;42.700;23.360;2023-04-25T09:47:15;94429.78;;;15.80;100.00
3096;BME280;1558;42.700;23.360;2023-04-25T09:49:44;94418.91;;;15.80;100.00
3096;BME280;1558;42.700;23.360;2023-04-25T09:52:16;94406.41;;;15.57;100.00
3096;BME280;1558;42.700;23.360;2023-04-25T09:54:44;94419.81;;;15.15;100.00
3096;BME280;1558;42.700;23.360;2023-04-25T09:57:14;94415.47;;;14.97;100.00
3096;BME280;1558;42.700;23.360;2023-04-25T09:59:44;94420.22;;;15.17;100.00
3096;BME280;1558;42.700;23.360;2023-04-25T10:02:15;94426.63;;;15.64;100.00
3096;BME280;1558;42.700;23.360;2023-04-25T10:04:45;94441.78;;;15.65;100.00
3096;BME280;1558;42.700;23.360;2023-04-25T10:07:18;94428.19;;;15.65;100.00
3096;BME280;1558;42.700;23.360;2023-04-25T10:09:48;94424.34;;;16.92;100.00
3096;BME280;1558;42.700;23.360;2023-04-25T10:12:17;94426.63;;;18.02;100.00
3096;BME280;1558;42.700;23.360;2023-04-25T10:14:46;94414.81;;;17.50;100.00
3096;BME280;1558;42.700;23.360;2023-04-25T10:17:17;94401.81;;;16.74;100.00
3096;BME280;1558;42.700;23.360;2023-04-25T10:19:47;94401.09;;;16.21;100.00
3096;BME280;1558;42.700;23.360;2023-04-25T10:22:20;94404.88;;;15.56;100.00
3096;BME280;1558;42.700;23.360;2023-04-25T10:24:51;94394.28;;;15.34;100.00
3096;BME280;1558;42.700;23.360;2023-04-25T10:27:20;94417.94;;;15.30;100.00
3096;BME280;1558;42.700;23.360;2023-04-25T10:30:00;94429.91;;;13.29;100.00
3096;BME280;1558;42.700;23.360;2023-04-25T10:32:31;94413.47;;;12.29;100.00
3096;BME280;1558;42.700;23.360;2023-04-25T10:35:10;94419.06;;;13.25;100.00
3096;BME280;1558;42.700;23.360;2023-04-25T10:37:38;94422.75;;;14.27;100.00
3096;BME280;1558;42.700;23.360;2023-04-25T10:40:10;94448.59;;;13.37;100.00
3096;BME280;1558;42.700;23.360;2023-04-25T10:42:40;94451.66;;;12.50;100.00
3096;BME280;1558;42.700;23.360;2023-04-25T10:45:09;94441.06;;;11.70;100.00
3096;BME280;1558;42.700;23.360;2023-04-25T10:47:43;94433.03;;;11.74;100.00
3096;BME280;1558;42.700;23.360;2023-04-25T10:50:14;94429.94;;;12.73;100.00
3096;BME280;1558;42.700;23.360;2023-04-25T10:52:43;94425.94;;;13.52;100.00
3096;BME280;1558;42.700;23.360;2023-04-25T10:55:12;94422.78;;;14.31;100.00
3096;BME280;1558;42.700;23.360;2023-04-25T10:57:41;94419.41;;;15.06;100.00
3096;BME280;1558;42.700;23.360;2023-04-25T11:00:13;94413.50;;;14.90;100.00
3096;BME280;1558;42.700;23.360;2023-04-25T11:02:45;94415.88;;;14.99;100.00
3096;BME280;1558;42.700;23.360;2023-04-25T11:05:28;94411.16;;;15.85;100.00
3096;BME280;1558;42.700;23.360;2023-04-25T11:07:59;94411.53;;;15.94;100.00
3096;BME280;1558;42.700;23.360;2023-04-25T11:10:34;94409.19;;;16.00;100.00
3096;BME280;1558;42.700;23.360;2023-04-25T11:13:04;94399.88;;;15.90;100.00
3096;BME280;1558;42.700;23.360;2023-04-25T11:15:32;94396.38;;;16.50;100.00
3096;BME280;1558;42.700;23.360;2023-04-25T11:18:03;94394.06;;;16.27;100.00
3096;BME280;1558;42.700;23.360;2023-04-25T11:20:31;94402.22;;;16.20;100.00
3096;BME280;1558;42.700;23.360;2023-04-25T11:22:59;94393.28;;;15.98;100.00
3096;BME280;1558;42.700;23.360;2023-04-25T11:25:33;94397.09;;;15.58;100.00
3096;BME280;1558;42.700;23.360;2023-04-25T11:28:04;94397.69;;;14.38;100.00
3096;BME280;1558;42.700;23.360;2023-04-25T11:30:32;94389.66;;;12.38;100.00
3096;BME280;1558;42.700;23.360;2023-04-25T11:33:00;94379.56;;;12.35;100.00
3096;BME280;1558;42.700;23.360;2023-04-25T11:35:31;94388.72;;;12.53;100.00
3096;BME280;1558;42.700;23.360;2023-04-25T11:38:01;94390.28;;;12.54;100.00
3096;BME280;1558;42.700;23.360;2023-04-25T11:40:30;94398.91;;;12.37;100.00
3096;BME280;1558;42.700;23.360;2023-04-25T11:43:00;94395.31;;;12.03;100.00
3096;BME280;1558;42.700;23.360;2023-04-25T11:45:28;94403.31;;;11.96;100.00
3096;BME280;1558;42.700;23.360;2023-04-25T11:47:57;94401.88;;;12.02;100.00
3096;BME280;1558;42.700;23.360;2023-04-25T11:50:28;94398.31;;;11.98;100.00
3096;BME280;1558;42.700;23.360;2023-04-25T11:52:57;94403.91;;;12.09;100.00
3096;BME280;1558;42.700;23.360;2023-04-25T11:55:25;94398.97;;;11.92;100.00
3096;BME280;1558;42.700;23.360;2023-04-25T11:57:54;94384.59;;;12.10;100.00
3096;BME280;1558;42.700;23.360;2023-04-25T12:00:23;94389.31;;;12.43;100.00
3096;BME280;1558;42.700;23.360;2023-04-25T12:02:53;94395.88;;;12.68;100.00
3096;BME280;1558;42.700;23.360;2023-04-25T12:05:24;94387.69;;;14.01;100.00
3096;BME280;1558;42.700;23.360;2023-04-25T12:08:11;94387.53;;;14.96;100.00
3096;BME280;1558;42.700;23.360;2023-04-25T12:10:41;94381.00;;;14.36;100.00
3096;BME280;1558;42.700;23.360;2023-04-25T12:13:21;94372.94;;;12.88;100.00
3096;BME280;1558;42.700;23.360;2023-04-25T12:15:49;94390.75;;;12.60;100.00
3096;BME280;1558;42.700;23.360;2023-04-25T12:18:19;94384.19;;;12.90;100.00
3096;BME280;1558;42.700;23.360;2023-04-25T12:20:48;94387.75;;;12.68;100.00
3096;BME280;1558;42.700;23.360;2023-04-25T12:23:25;94385.88;;;12.72;100.00
3096;BME280;1558;42.700;23.360;2023-04-25T12:25:54;94375.00;;;12.99;100.00
3096;BME280;1558;42.700;23.360;2023-04-25T12:28:23;94357.88;;;13.21;100.00
3096;BME280;1558;42.700;23.360;2023-04-25T12:30:58;94388.19;;;13.33;100.00
3096;BME280;1558;42.700;23.360;2023-04-25T12:33:29;94400.97;;;13.73;100.00
3096;BME280;1558;42.700;23.360;2023-04-25T12:35:58;94419.84;;;13.63;100.00
3096;BME280;1558;42.700;23.360;2023-04-25T12:38:29;94437.94;;;13.22;100.00
3096;BME280;1558;42.700;23.360;2023-04-25T12:40:58;94456.09;;;11.90;100.00
3096;BME280;1558;42.700;23.360;2023-04-25T12:43:26;94444.84;;;11.46;100.00
3096;BME280;1558;42.700;23.360;2023-04-25T12:45:55;94451.69;;;11.40;100.00
3096;BME280;1558;42.700;23.360;2023-04-25T12:48:23;94448.06;;;11.33;100.00
3096;BME280;1558;42.700;23.360;2023-04-25T12:50:52;94448.91;;;11.37;100.00
3096;BME280;1558;42.700;23.360;2023-04-25T12:53:21;94449.03;;;11.44;100.00
3096;BME280;1558;42.700;23.360;2023-04-25T12:55:54;94455.94;;;11.41;100.00
3096;BME280;1558;42.700;23.360;2023-04-25T12:58:22;94454.31;;;11.37;100.00
3096;BME280;1558;42.700;23.360;2023-04-25T13:00:51;94445.44;;;11.17;100.00
3096;BME280;1558;42.700;23.360;2023-04-25T13:03:19;94449.56;;;11.11;100.00
3096;BME280;1558;42.700;23.360;2023-04-25T13:05:48;94445.09;;;11.19;100.00
3096;BME280;1558;42.700;23.360;2023-04-25T13:08:16;94456.22;;;11.36;100.00
3096;BME280;1558;42.700;23.360;2023-04-25T13:10:45;94450.91;;;11.40;100.00
3096;BME280;1558;42.700;23.360;2023-04-25T13:13:17;94443.59;;;11.40;100.00